Dublin, Ireland

8:05 AM GMT on February 09, 2016 (GMT +0000)
Templeogue, Dublin | | Change Station
CLOSE
Current Station
Personal Weather Station
Location: Dublin, DUBLIN
Elevation: 174 ft
Nearby Weather Stations

Elev 174 ft 53.31 °N, 6.32 °W | Updated 60 seconds ago

Mostly Cloudy
Mostly Cloudy
35.4 °F
Feels Like 35 °F
N
0.0
Wind Variable Wind from North
Gusts 0.0 mph

Today
High -- | Low -- °F
--% Chance of Precip.
Yesterday
High -- | Low -- °F
Precip. -- in
Pressure 29.03 in
Visibility 6.2 miles
Clouds Few 1600 ft
Mostly Cloudy 13000 ft
Windchill 35 °F
Dew Point 30 °F
Humidity 81%
Rainfall 0.00 in
Snow Depth Not available.
7:56 AM 5:23 PM
New Moon, 1% visible
METAR EIDW 090800Z 24015KT 9999 FEW016 BKN130 01/M00 Q0983 NOSIG
Pressure 29.03 in
Visibility 6.2 miles
Clouds Few 1600 ft
Mostly Cloudy 13000 ft
Windchill 35 °F
Dew Point 30 °F
Humidity 81%
Rainfall 0.00 in
Snow Depth Not available.
7:56 AM 5:23 PM
New Moon, 1% visible
METAR EIDW 090800Z 24015KT 9999 FEW016 BKN130 01/M00 Q0983 NOSIG

10-Day Weather Forecast

Almanac

Astronomy

Feb. 09, 2016 Rise Set
Actual Time
Civil Twilight
Nautical Twilight
Astronomical Twilight
Moon
Length of Visible Light
Length of Day
Tomorrow will be .
, % of the Moon is Illuminated

Today's Extremes

Country Highs Country Lows

Community

WunderPhotos

Upload Photos

1,891,571 photos uploaded!

WunderBlog® & News

Nearby

Air Quality

  Air Quality AQ Index Pollutant
Not available.

Snow Depth

Station Depth Elevation

Earthquake Activity

City Distance Mag. Time & Date
Minimum magnitude displayed is 2.5.

Coastal Water Temperatures

Place Temperature

Stations

Nearby Weather Stations

Station Location Temp. Windchill Dew Point Humidity Wind Precip. Elev Updated Type